<?xml version="1.0" encoding="UTF-8" standalone="no" ?>
<gpx xmlns="http://www.topografix.com/GPX/1/1" xmlns:xsi="http://www.w3.org/2001/XMLSchema-instance" xsi:schemaLocation="http://www.topografix.com/GPX/1/1 http://www.topografix.com/GPX/1/1/gpx.xsd" version="1.1" creator="VisuGPX - https://www.visugpx.com">
  <metadata>
    <name>Traversée des Pyrénées 2/8</name>
    <desc><![CDATA[Partie 2/8 de la traversée des Pyrénées à ski.]]></desc>
  </metadata>
  <trk>
    <name><![CDATA[Canillo Course à pied]]></name>
    <trkseg>
      <trkpt lat="42.61694" lon="1.62864">
        <ele>2134.8000488281</ele>
        <time>2017-02-16T07:36:14.000Z</time>
      </trkpt>
      <trkpt lat="42.61687" lon="1.62869">
        <ele>2134.6000976562</ele>
        <time>2017-02-16T07:37:14.000Z</time>
      </trkpt>
      <trkpt lat="42.61692" lon="1.62858">
        <ele>2134.6000976562</ele>
        <time>2017-02-16T07:38:14.000Z</time>
      </trkpt>
      <trkpt lat="42.61702" lon="1.62862">
        <ele>2134.1999511719</ele>
        <time>2017-02-16T07:39:16.000Z</time>
      </trkpt>
      <trkpt lat="42.61695" lon="1.62847">
        <ele>2134.3999023438</ele>
        <time>2017-02-16T07:40:19.000Z</time>
      </trkpt>
      <trkpt lat="42.61695" lon="1.62868">
        <ele>2134.8000488281</ele>
        <time>2017-02-16T07:41:20.000Z</time>
      </trkpt>
      <trkpt lat="42.61702" lon="1.62834">
        <ele>2138.1999511719</ele>
        <time>2017-02-16T07:42:22.000Z</time>
      </trkpt>
      <trkpt lat="42.61718" lon="1.62772">
        <ele>2142.8000488281</ele>
        <time>2017-02-16T07:43:23.000Z</time>
      </trkpt>
      <trkpt lat="42.61717" lon="1.62713">
        <ele>2146.6000976562</ele>
        <time>2017-02-16T07:44:24.000Z</time>
      </trkpt>
      <trkpt lat="42.61707" lon="1.62675">
        <ele>2151.6000976562</ele>
        <time>2017-02-16T07:45:25.000Z</time>
      </trkpt>
      <trkpt lat="42.61723" lon="1.62665">
        <ele>2154</ele>
        <time>2017-02-16T07:46:28.000Z</time>
      </trkpt>
      <trkpt lat="42.61723" lon="1.62652">
        <ele>2154.8000488281</ele>
        <time>2017-02-16T07:47:29.000Z</time>
      </trkpt>
      <trkpt lat="42.61734" lon="1.62663">
        <ele>2155</ele>
        <time>2017-02-16T07:48:30.000Z</time>
      </trkpt>
      <trkpt lat="42.61715" lon="1.62643">
        <ele>2155.8000488281</ele>
        <time>2017-02-16T07:49:31.000Z</time>
      </trkpt>
      <trkpt lat="42.6172" lon="1.62615">
        <ele>2164</ele>
        <time>2017-02-16T07:50:33.000Z</time>
      </trkpt>
      <trkpt lat="42.61691" lon="1.62592">
        <ele>2173</ele>
        <time>2017-02-16T07:51:36.000Z</time>
      </trkpt>
      <trkpt lat="42.6165" lon="1.62547">
        <ele>2176.8000488281</ele>
        <time>2017-02-16T07:52:38.000Z</time>
      </trkpt>
      <trkpt lat="42.6165" lon="1.62478">
        <ele>2180.8000488281</ele>
        <time>2017-02-16T07:53:40.000Z</time>
      </trkpt>
      <trkpt lat="42.61616" lon="1.62453">
        <ele>2185.6000976562</ele>
        <time>2017-02-16T07:54:41.000Z</time>
      </trkpt>
      <trkpt lat="42.61623" lon="1.62407">
        <ele>2193.1999511719</ele>
        <time>2017-02-16T07:55:43.000Z</time>
      </trkpt>
      <trkpt lat="42.61587" lon="1.62387">
        <ele>2198.8000488281</ele>
        <time>2017-02-16T07:56:46.000Z</time>
      </trkpt>
      <trkpt lat="42.61638" lon="1.62334">
        <ele>2206.3999023438</ele>
        <time>2017-02-16T07:57:48.000Z</time>
      </trkpt>
      <trkpt lat="42.61599" lon="1.62349">
        <ele>2216.3999023438</ele>
        <time>2017-02-16T07:59:02.000Z</time>
      </trkpt>
      <trkpt lat="42.61596" lon="1.62373">
        <ele>2226.6000976562</ele>
        <time>2017-02-16T08:00:14.000Z</time>
      </trkpt>
      <trkpt lat="42.61557" lon="1.62284">
        <ele>2234.6000976562</ele>
        <time>2017-02-16T08:01:21.000Z</time>
      </trkpt>
      <trkpt lat="42.61546" lon="1.62219">
        <ele>2240.1999511719</ele>
        <time>2017-02-16T08:02:24.000Z</time>
      </trkpt>
      <trkpt lat="42.61557" lon="1.62162">
        <ele>2246.8000488281</ele>
        <time>2017-02-16T08:03:29.000Z</time>
      </trkpt>
      <trkpt lat="42.61583" lon="1.62117">
        <ele>2256.1999511719</ele>
        <time>2017-02-16T08:04:36.000Z</time>
      </trkpt>
      <trkpt lat="42.61587" lon="1.62115">
        <ele>2265</ele>
        <time>2017-02-16T08:05:41.000Z</time>
      </trkpt>
      <trkpt lat="42.61622" lon="1.6212">
        <ele>2273.6000976562</ele>
        <time>2017-02-16T08:06:42.000Z</time>
      </trkpt>
      <trkpt lat="42.61611" lon="1.62083">
        <ele>2282.1999511719</ele>
        <time>2017-02-16T08:07:44.000Z</time>
      </trkpt>
      <trkpt lat="42.61651" lon="1.62088">
        <ele>2292.1999511719</ele>
        <time>2017-02-16T08:08:48.000Z</time>
      </trkpt>
      <trkpt lat="42.61656" lon="1.62055">
        <ele>2300.8000488281</ele>
        <time>2017-02-16T08:09:52.000Z</time>
      </trkpt>
      <trkpt lat="42.61658" lon="1.62038">
        <ele>2309.3999023438</ele>
        <time>2017-02-16T08:10:55.000Z</time>
      </trkpt>
      <trkpt lat="42.61682" lon="1.62039">
        <ele>2318</ele>
        <time>2017-02-16T08:12:01.000Z</time>
      </trkpt>
      <trkpt lat="42.61685" lon="1.62034">
        <ele>2325.8000488281</ele>
        <time>2017-02-16T08:13:04.000Z</time>
      </trkpt>
      <trkpt lat="42.61673" lon="1.61987">
        <ele>2334</ele>
        <time>2017-02-16T08:14:06.000Z</time>
      </trkpt>
      <trkpt lat="42.61712" lon="1.62007">
        <ele>2341.8000488281</ele>
        <time>2017-02-16T08:15:10.000Z</time>
      </trkpt>
      <trkpt lat="42.61722" lon="1.61965">
        <ele>2349.8000488281</ele>
        <time>2017-02-16T08:16:15.000Z</time>
      </trkpt>
      <trkpt lat="42.61716" lon="1.61941">
        <ele>2358</ele>
        <time>2017-02-16T08:17:17.000Z</time>
      </trkpt>
      <trkpt lat="42.61816" lon="1.62106">
        <ele>2367.3999023438</ele>
        <time>2017-02-16T08:18:22.000Z</time>
      </trkpt>
      <trkpt lat="42.61765" lon="1.61911">
        <ele>2375.6000976562</ele>
        <time>2017-02-16T08:19:25.000Z</time>
      </trkpt>
      <trkpt lat="42.61784" lon="1.61876">
        <ele>2383.3999023438</ele>
        <time>2017-02-16T08:20:29.000Z</time>
      </trkpt>
      <trkpt lat="42.61782" lon="1.61839">
        <ele>2391.1999511719</ele>
        <time>2017-02-16T08:21:32.000Z</time>
      </trkpt>
      <trkpt lat="42.61771" lon="1.6181">
        <ele>2398.6000976562</ele>
        <time>2017-02-16T08:22:36.000Z</time>
      </trkpt>
      <trkpt lat="42.61764" lon="1.6175">
        <ele>2406</ele>
        <time>2017-02-16T08:23:39.000Z</time>
      </trkpt>
      <trkpt lat="42.61782" lon="1.61775">
        <ele>2411.8000488281</ele>
        <time>2017-02-16T08:24:44.000Z</time>
      </trkpt>
      <trkpt lat="42.61829" lon="1.61801">
        <ele>2416.1999511719</ele>
        <time>2017-02-16T08:25:45.000Z</time>
      </trkpt>
      <trkpt lat="42.61857" lon="1.6176">
        <ele>2421.8000488281</ele>
        <time>2017-02-16T08:26:46.000Z</time>
      </trkpt>
      <trkpt lat="42.61874" lon="1.61718">
        <ele>2429.1999511719</ele>
        <time>2017-02-16T08:27:46.000Z</time>
      </trkpt>
      <trkpt lat="42.61873" lon="1.61683">
        <ele>2435.8000488281</ele>
        <time>2017-02-16T08:28:48.000Z</time>
      </trkpt>
      <trkpt lat="42.61883" lon="1.61704">
        <ele>2435.8000488281</ele>
        <time>2017-02-16T08:29:51.000Z</time>
      </trkpt>
      <trkpt lat="42.61869" lon="1.61674">
        <ele>2435.8000488281</ele>
        <time>2017-02-16T08:30:51.000Z</time>
      </trkpt>
      <trkpt lat="42.61893" lon="1.61614">
        <ele>2438.3999023438</ele>
        <time>2017-02-16T08:31:51.000Z</time>
      </trkpt>
      <trkpt lat="42.61875" lon="1.61511">
        <ele>2431.6000976562</ele>
        <time>2017-02-16T08:33:04.000Z</time>
      </trkpt>
      <trkpt lat="42.61867" lon="1.61426">
        <ele>2432</ele>
        <time>2017-02-16T08:34:15.000Z</time>
      </trkpt>
      <trkpt lat="42.61864" lon="1.61377">
        <ele>2438.1999511719</ele>
        <time>2017-02-16T08:35:27.000Z</time>
      </trkpt>
      <trkpt lat="42.61843" lon="1.61373">
        <ele>2445.1999511719</ele>
        <time>2017-02-16T08:36:39.000Z</time>
      </trkpt>
      <trkpt lat="42.6185" lon="1.61325">
        <ele>2453.8000488281</ele>
        <time>2017-02-16T08:37:51.000Z</time>
      </trkpt>
      <trkpt lat="42.61838" lon="1.61269">
        <ele>2462.3999023438</ele>
        <time>2017-02-16T08:39:03.000Z</time>
      </trkpt>
      <trkpt lat="42.61823" lon="1.61232">
        <ele>2470.8000488281</ele>
        <time>2017-02-16T08:40:17.000Z</time>
      </trkpt>
      <trkpt lat="42.61871" lon="1.6123">
        <ele>2478.6000976562</ele>
        <time>2017-02-16T08:41:29.000Z</time>
      </trkpt>
      <trkpt lat="42.61845" lon="1.61166">
        <ele>2487</ele>
        <time>2017-02-16T08:42:41.000Z</time>
      </trkpt>
      <trkpt lat="42.61893" lon="1.61175">
        <ele>2496.6000976562</ele>
        <time>2017-02-16T08:43:53.000Z</time>
      </trkpt>
      <trkpt lat="42.61878" lon="1.61159">
        <ele>2504</ele>
        <time>2017-02-16T08:45:06.000Z</time>
      </trkpt>
      <trkpt lat="42.61865" lon="1.61081">
        <ele>2514</ele>
        <time>2017-02-16T08:46:18.000Z</time>
      </trkpt>
      <trkpt lat="42.61865" lon="1.61114">
        <ele>2515.8000488281</ele>
        <time>2017-02-16T08:47:31.000Z</time>
      </trkpt>
      <trkpt lat="42.6188" lon="1.61116">
        <ele>2516.1999511719</ele>
        <time>2017-02-16T08:48:43.000Z</time>
      </trkpt>
      <trkpt lat="42.6187" lon="1.61108">
        <ele>2514.6000976562</ele>
        <time>2017-02-16T08:49:55.000Z</time>
      </trkpt>
      <trkpt lat="42.61873" lon="1.61114">
        <ele>2516.1999511719</ele>
        <time>2017-02-16T08:51:07.000Z</time>
      </trkpt>
      <trkpt lat="42.61869" lon="1.61103">
        <ele>2515</ele>
        <time>2017-02-16T08:52:21.000Z</time>
      </trkpt>
      <trkpt lat="42.6187" lon="1.61108">
        <ele>2514.3999023438</ele>
        <time>2017-02-16T08:53:33.000Z</time>
      </trkpt>
      <trkpt lat="42.61878" lon="1.61101">
        <ele>2514.1999511719</ele>
        <time>2017-02-16T08:54:47.000Z</time>
      </trkpt>
      <trkpt lat="42.61869" lon="1.61099">
        <ele>2515.3999023438</ele>
        <time>2017-02-16T08:56:01.000Z</time>
      </trkpt>
      <trkpt lat="42.61883" lon="1.61108">
        <ele>2515.8000488281</ele>
        <time>2017-02-16T08:57:13.000Z</time>
      </trkpt>
      <trkpt lat="42.61897" lon="1.61052">
        <ele>2523</ele>
        <time>2017-02-16T08:58:27.000Z</time>
      </trkpt>
      <trkpt lat="42.61912" lon="1.60997">
        <ele>2529.8000488281</ele>
        <time>2017-02-16T08:59:39.000Z</time>
      </trkpt>
      <trkpt lat="42.61917" lon="1.60955">
        <ele>2537</ele>
        <time>2017-02-16T09:00:51.000Z</time>
      </trkpt>
      <trkpt lat="42.61929" lon="1.60909">
        <ele>2545</ele>
        <time>2017-02-16T09:02:03.000Z</time>
      </trkpt>
      <trkpt lat="42.6194" lon="1.60855">
        <ele>2553.8000488281</ele>
        <time>2017-02-16T09:03:15.000Z</time>
      </trkpt>
      <trkpt lat="42.61947" lon="1.60863">
        <ele>2562</ele>
        <time>2017-02-16T09:04:27.000Z</time>
      </trkpt>
      <trkpt lat="42.61961" lon="1.60815">
        <ele>2570.3999023438</ele>
        <time>2017-02-16T09:05:40.000Z</time>
      </trkpt>
      <trkpt lat="42.61963" lon="1.60806">
        <ele>2579.3999023438</ele>
        <time>2017-02-16T09:06:52.000Z</time>
      </trkpt>
      <trkpt lat="42.61966" lon="1.60763">
        <ele>2589</ele>
        <time>2017-02-16T09:08:04.000Z</time>
      </trkpt>
      <trkpt lat="42.61991" lon="1.60771">
        <ele>2598.3999023438</ele>
        <time>2017-02-16T09:09:17.000Z</time>
      </trkpt>
      <trkpt lat="42.62009" lon="1.60781">
        <ele>2607.8000488281</ele>
        <time>2017-02-16T09:10:29.000Z</time>
      </trkpt>
      <trkpt lat="42.62031" lon="1.60819">
        <ele>2616.1999511719</ele>
        <time>2017-02-16T09:11:43.000Z</time>
      </trkpt>
      <trkpt lat="42.62064" lon="1.60835">
        <ele>2624.1999511719</ele>
        <time>2017-02-16T09:12:55.000Z</time>
      </trkpt>
      <trkpt lat="42.62115" lon="1.60861">
        <ele>2633.1999511719</ele>
        <time>2017-02-16T09:14:09.000Z</time>
      </trkpt>
      <trkpt lat="42.62135" lon="1.60837">
        <ele>2642.1999511719</ele>
        <time>2017-02-16T09:15:21.000Z</time>
      </trkpt>
      <trkpt lat="42.62164" lon="1.60832">
        <ele>2645.6000976562</ele>
        <time>2017-02-16T09:16:34.000Z</time>
      </trkpt>
      <trkpt lat="42.62173" lon="1.60785">
        <ele>2652.3999023438</ele>
        <time>2017-02-16T09:17:46.000Z</time>
      </trkpt>
      <trkpt lat="42.62167" lon="1.60734">
        <ele>2660.3999023438</ele>
        <time>2017-02-16T09:18:58.000Z</time>
      </trkpt>
      <trkpt lat="42.62165" lon="1.60723">
        <ele>2667.6000976562</ele>
        <time>2017-02-16T09:20:11.000Z</time>
      </trkpt>
      <trkpt lat="42.62146" lon="1.60717">
        <ele>2674.6000976562</ele>
        <time>2017-02-16T09:21:23.000Z</time>
      </trkpt>
      <trkpt lat="42.62148" lon="1.60669">
        <ele>2683.3999023438</ele>
        <time>2017-02-16T09:22:36.000Z</time>
      </trkpt>
      <trkpt lat="42.62137" lon="1.6066">
        <ele>2688</ele>
        <time>2017-02-16T09:23:48.000Z</time>
      </trkpt>
      <trkpt lat="42.62123" lon="1.60672">
        <ele>2691.6000976562</ele>
        <time>2017-02-16T09:25:00.000Z</time>
      </trkpt>
      <trkpt lat="42.62139" lon="1.60642">
        <ele>2698.1999511719</ele>
        <time>2017-02-16T09:26:12.000Z</time>
      </trkpt>
      <trkpt lat="42.62122" lon="1.60616">
        <ele>2705.1999511719</ele>
        <time>2017-02-16T09:27:24.000Z</time>
      </trkpt>
      <trkpt lat="42.62129" lon="1.60629">
        <ele>2712.3999023438</ele>
        <time>2017-02-16T09:28:37.000Z</time>
      </trkpt>
      <trkpt lat="42.62135" lon="1.60606">
        <ele>2717.8000488281</ele>
        <time>2017-02-16T09:29:51.000Z</time>
      </trkpt>
      <trkpt lat="42.62143" lon="1.60601">
        <ele>2721.3999023438</ele>
        <time>2017-02-16T09:31:04.000Z</time>
      </trkpt>
      <trkpt lat="42.62157" lon="1.60575">
        <ele>2725</ele>
        <time>2017-02-16T09:32:16.000Z</time>
      </trkpt>
      <trkpt lat="42.62173" lon="1.60568">
        <ele>2724.1999511719</ele>
        <time>2017-02-16T09:33:30.000Z</time>
      </trkpt>
      <trkpt lat="42.62198" lon="1.6055">
        <ele>2723.8000488281</ele>
        <time>2017-02-16T09:34:42.000Z</time>
      </trkpt>
      <trkpt lat="42.62219" lon="1.60511">
        <ele>2732.3999023438</ele>
        <time>2017-02-16T09:35:55.000Z</time>
      </trkpt>
      <trkpt lat="42.62253" lon="1.60503">
        <ele>2736.6000976562</ele>
        <time>2017-02-16T09:37:08.000Z</time>
      </trkpt>
      <trkpt lat="42.62247" lon="1.60485">
        <ele>2739.1999511719</ele>
        <time>2017-02-16T09:38:20.000Z</time>
      </trkpt>
      <trkpt lat="42.62265" lon="1.60479">
        <ele>2741.1999511719</ele>
        <time>2017-02-16T09:39:29.000Z</time>
      </trkpt>
      <trkpt lat="42.62258" lon="1.60484">
        <ele>2740.8000488281</ele>
        <time>2017-02-16T09:40:29.000Z</time>
      </trkpt>
      <trkpt lat="42.62258" lon="1.60483">
        <ele>2742</ele>
        <time>2017-02-16T09:41:29.000Z</time>
      </trkpt>
      <trkpt lat="42.6226" lon="1.60479">
        <ele>2742.1999511719</ele>
        <time>2017-02-16T09:42:29.000Z</time>
      </trkpt>
      <trkpt lat="42.62261" lon="1.60482">
        <ele>2741.6000976562</ele>
        <time>2017-02-16T09:43:44.000Z</time>
      </trkpt>
      <trkpt lat="42.62264" lon="1.60482">
        <ele>2741.8000488281</ele>
        <time>2017-02-16T09:44:58.000Z</time>
      </trkpt>
      <trkpt lat="42.62274" lon="1.6049">
        <ele>2741.1999511719</ele>
        <time>2017-02-16T09:46:13.000Z</time>
      </trkpt>
      <trkpt lat="42.62263" lon="1.60471">
        <ele>2741.3999023438</ele>
        <time>2017-02-16T09:47:26.000Z</time>
      </trkpt>
      <trkpt lat="42.62264" lon="1.60469">
        <ele>2743.1999511719</ele>
        <time>2017-02-16T09:48:39.000Z</time>
      </trkpt>
      <trkpt lat="42.62287" lon="1.60438">
        <ele>2752.6000976562</ele>
        <time>2017-02-16T09:49:51.000Z</time>
      </trkpt>
      <trkpt lat="42.62307" lon="1.60439">
        <ele>2761.3999023438</ele>
        <time>2017-02-16T09:51:04.000Z</time>
      </trkpt>
      <trkpt lat="42.6233" lon="1.60421">
        <ele>2771.1999511719</ele>
        <time>2017-02-16T09:52:16.000Z</time>
      </trkpt>
      <trkpt lat="42.62356" lon="1.60411">
        <ele>2777.8000488281</ele>
        <time>2017-02-16T09:53:29.000Z</time>
      </trkpt>
      <trkpt lat="42.62372" lon="1.60381">
        <ele>2784.3999023438</ele>
        <time>2017-02-16T09:54:41.000Z</time>
      </trkpt>
      <trkpt lat="42.62406" lon="1.60378">
        <ele>2794</ele>
        <time>2017-02-16T09:55:54.000Z</time>
      </trkpt>
      <trkpt lat="42.62402" lon="1.60382">
        <ele>2803</ele>
        <time>2017-02-16T09:57:07.000Z</time>
      </trkpt>
      <trkpt lat="42.62412" lon="1.60387">
        <ele>2809</ele>
        <time>2017-02-16T09:58:20.000Z</time>
      </trkpt>
      <trkpt lat="42.62441" lon="1.60384">
        <ele>2816.8000488281</ele>
        <time>2017-02-16T09:59:33.000Z</time>
      </trkpt>
      <trkpt lat="42.62434" lon="1.60369">
        <ele>2821.3999023438</ele>
        <time>2017-02-16T10:00:48.000Z</time>
      </trkpt>
      <trkpt lat="42.62445" lon="1.60369">
        <ele>2827.3999023438</ele>
        <time>2017-02-16T10:02:00.000Z</time>
      </trkpt>
      <trkpt lat="42.62447" lon="1.60362">
        <ele>2830.8000488281</ele>
        <time>2017-02-16T10:03:14.000Z</time>
      </trkpt>
      <trkpt lat="42.62449" lon="1.60354">
        <ele>2832.6000976562</ele>
        <time>2017-02-16T10:04:27.000Z</time>
      </trkpt>
      <trkpt lat="42.62456" lon="1.60355">
        <ele>2837.1999511719</ele>
        <time>2017-02-16T10:05:39.000Z</time>
      </trkpt>
      <trkpt lat="42.62465" lon="1.60329">
        <ele>2842</ele>
        <time>2017-02-16T10:06:53.000Z</time>
      </trkpt>
      <trkpt lat="42.62468" lon="1.60347">
        <ele>2848.3999023438</ele>
        <time>2017-02-16T10:08:07.000Z</time>
      </trkpt>
      <trkpt lat="42.62484" lon="1.60349">
        <ele>2854.6000976562</ele>
        <time>2017-02-16T10:09:20.000Z</time>
      </trkpt>
      <trkpt lat="42.62494" lon="1.6034">
        <ele>2860.1999511719</ele>
        <time>2017-02-16T10:10:33.000Z</time>
      </trkpt>
      <trkpt lat="42.62495" lon="1.60315">
        <ele>2866.8000488281</ele>
        <time>2017-02-16T10:11:46.000Z</time>
      </trkpt>
      <trkpt lat="42.62508" lon="1.60291">
        <ele>2871.6000976562</ele>
        <time>2017-02-16T10:13:00.000Z</time>
      </trkpt>
      <trkpt lat="42.6251" lon="1.60308">
        <ele>2875.8000488281</ele>
        <time>2017-02-16T10:14:12.000Z</time>
      </trkpt>
      <trkpt lat="42.62518" lon="1.6033">
        <ele>2878.6000976562</ele>
        <time>2017-02-16T10:15:25.000Z</time>
      </trkpt>
      <trkpt lat="42.62525" lon="1.6032">
        <ele>2885.1999511719</ele>
        <time>2017-02-16T10:16:39.000Z</time>
      </trkpt>
      <trkpt lat="42.62537" lon="1.60306">
        <ele>2890.6000976562</ele>
        <time>2017-02-16T10:17:52.000Z</time>
      </trkpt>
      <trkpt lat="42.6254" lon="1.60272">
        <ele>2893</ele>
        <time>2017-02-16T10:19:04.000Z</time>
      </trkpt>
      <trkpt lat="42.62554" lon="1.60287">
        <ele>2898.8000488281</ele>
        <time>2017-02-16T10:20:16.000Z</time>
      </trkpt>
      <trkpt lat="42.62548" lon="1.60284">
        <ele>2899.6000976562</ele>
        <time>2017-02-16T10:21:16.000Z</time>
      </trkpt>
      <trkpt lat="42.62553" lon="1.60288">
        <ele>2899.8000488281</ele>
        <time>2017-02-16T10:22:16.000Z</time>
      </trkpt>
      <trkpt lat="42.62544" lon="1.60296">
        <ele>2899.1999511719</ele>
        <time>2017-02-16T10:23:29.000Z</time>
      </trkpt>
      <trkpt lat="42.62543" lon="1.60279">
        <ele>2898.8000488281</ele>
        <time>2017-02-16T10:24:42.000Z</time>
      </trkpt>
      <trkpt lat="42.6256" lon="1.6029">
        <ele>2899</ele>
        <time>2017-02-16T10:25:58.000Z</time>
      </trkpt>
      <trkpt lat="42.62548" lon="1.6028">
        <ele>2899</ele>
        <time>2017-02-16T10:27:12.000Z</time>
      </trkpt>
      <trkpt lat="42.62555" lon="1.60294">
        <ele>2898.3999023438</ele>
        <time>2017-02-16T10:28:26.000Z</time>
      </trkpt>
      <trkpt lat="42.62556" lon="1.60274">
        <ele>2898.8000488281</ele>
        <time>2017-02-16T10:29:39.000Z</time>
      </trkpt>
      <trkpt lat="42.62548" lon="1.60304">
        <ele>2899.6000976562</ele>
        <time>2017-02-16T10:30:52.000Z</time>
      </trkpt>
      <trkpt lat="42.62543" lon="1.60289">
        <ele>2898.8000488281</ele>
        <time>2017-02-16T10:32:05.000Z</time>
      </trkpt>
      <trkpt lat="42.62555" lon="1.60282">
        <ele>2898.6000976562</ele>
        <time>2017-02-16T10:33:18.000Z</time>
      </trkpt>
      <trkpt lat="42.62562" lon="1.60304">
        <ele>2898.8000488281</ele>
        <time>2017-02-16T10:34:31.000Z</time>
      </trkpt>
      <trkpt lat="42.62555" lon="1.60296">
        <ele>2898.8000488281</ele>
        <time>2017-02-16T10:35:43.000Z</time>
      </trkpt>
      <trkpt lat="42.62544" lon="1.60299">
        <ele>2898.8000488281</ele>
        <time>2017-02-16T10:36:55.000Z</time>
      </trkpt>
      <trkpt lat="42.62551" lon="1.60287">
        <ele>2898.3999023438</ele>
        <time>2017-02-16T10:38:07.000Z</time>
      </trkpt>
      <trkpt lat="42.62554" lon="1.60286">
        <ele>2898.6000976562</ele>
        <time>2017-02-16T10:39:25.000Z</time>
      </trkpt>
      <trkpt lat="42.62552" lon="1.60285">
        <ele>2898.8000488281</ele>
        <time>2017-02-16T10:40:38.000Z</time>
      </trkpt>
      <trkpt lat="42.62554" lon="1.60287">
        <ele>2898.8000488281</ele>
        <time>2017-02-16T10:41:51.000Z</time>
      </trkpt>
      <trkpt lat="42.62558" lon="1.60255">
        <ele>2900.3999023438</ele>
        <time>2017-02-16T10:43:03.000Z</time>
      </trkpt>
      <trkpt lat="42.62548" lon="1.60281">
        <ele>2899.3999023438</ele>
        <time>2017-02-16T10:44:17.000Z</time>
      </trkpt>
      <trkpt lat="42.62551" lon="1.60291">
        <ele>2899</ele>
        <time>2017-02-16T10:45:29.000Z</time>
      </trkpt>
      <trkpt lat="42.62554" lon="1.60294">
        <ele>2899</ele>
        <time>2017-02-16T10:46:44.000Z</time>
      </trkpt>
      <trkpt lat="42.62546" lon="1.60287">
        <ele>2899.3999023438</ele>
        <time>2017-02-16T10:47:56.000Z</time>
      </trkpt>
      <trkpt lat="42.62556" lon="1.60291">
        <ele>2899</ele>
        <time>2017-02-16T10:49:08.000Z</time>
      </trkpt>
      <trkpt lat="42.62551" lon="1.60283">
        <ele>2899.3999023438</ele>
        <time>2017-02-16T10:50:21.000Z</time>
      </trkpt>
      <trkpt lat="42.62555" lon="1.60268">
        <ele>2900</ele>
        <time>2017-02-16T10:51:34.000Z</time>
      </trkpt>
      <trkpt lat="42.62554" lon="1.60244">
        <ele>2899.3999023438</ele>
        <time>2017-02-16T10:52:47.000Z</time>
      </trkpt>
      <trkpt lat="42.62552" lon="1.60237">
        <ele>2897</ele>
        <time>2017-02-16T10:54:01.000Z</time>
      </trkpt>
      <trkpt lat="42.62548" lon="1.60238">
        <ele>2897.1999511719</ele>
        <time>2017-02-16T10:55:14.000Z</time>
      </trkpt>
      <trkpt lat="42.6256" lon="1.60229">
        <ele>2897.8000488281</ele>
        <time>2017-02-16T10:56:28.000Z</time>
      </trkpt>
      <trkpt lat="42.62566" lon="1.60247">
        <ele>2898.1999511719</ele>
        <time>2017-02-16T10:57:43.000Z</time>
      </trkpt>
      <trkpt lat="42.62563" lon="1.60233">
        <ele>2898.1999511719</ele>
        <time>2017-02-16T10:58:56.000Z</time>
      </trkpt>
      <trkpt lat="42.62557" lon="1.60234">
        <ele>2898</ele>
        <time>2017-02-16T11:00:10.000Z</time>
      </trkpt>
      <trkpt lat="42.62538" lon="1.60221">
        <ele>2882.1999511719</ele>
        <time>2017-02-16T11:01:23.000Z</time>
      </trkpt>
      <trkpt lat="42.62441" lon="1.60046">
        <ele>2842</ele>
        <time>2017-02-16T11:02:36.000Z</time>
      </trkpt>
      <trkpt lat="42.62394" lon="1.59962">
        <ele>2793</ele>
        <time>2017-02-16T11:03:49.000Z</time>
      </trkpt>
      <trkpt lat="42.62308" lon="1.59926">
        <ele>2732</ele>
        <time>2017-02-16T11:05:02.000Z</time>
      </trkpt>
      <trkpt lat="42.62244" lon="1.59955">
        <ele>2690.3999023438</ele>
        <time>2017-02-16T11:06:16.000Z</time>
      </trkpt>
      <trkpt lat="42.62254" lon="1.59946">
        <ele>2689.6000976562</ele>
        <time>2017-02-16T11:07:28.000Z</time>
      </trkpt>
      <trkpt lat="42.62246" lon="1.59946">
        <ele>2690</ele>
        <time>2017-02-16T11:08:41.000Z</time>
      </trkpt>
      <trkpt lat="42.62254" lon="1.59977">
        <ele>2689.3999023438</ele>
        <time>2017-02-16T11:09:55.000Z</time>
      </trkpt>
      <trkpt lat="42.62259" lon="1.60195">
        <ele>2632.8000488281</ele>
        <time>2017-02-16T11:11:08.000Z</time>
      </trkpt>
      <trkpt lat="42.62005" lon="1.60139">
        <ele>2557.8000488281</ele>
        <time>2017-02-16T11:12:22.000Z</time>
      </trkpt>
      <trkpt lat="42.62024" lon="1.60174">
        <ele>2557.8000488281</ele>
        <time>2017-02-16T11:13:37.000Z</time>
      </trkpt>
      <trkpt lat="42.61994" lon="1.60138">
        <ele>2558</ele>
        <time>2017-02-16T11:14:50.000Z</time>
      </trkpt>
      <trkpt lat="42.61927" lon="1.60016">
        <ele>2530.3999023438</ele>
        <time>2017-02-16T11:16:06.000Z</time>
      </trkpt>
      <trkpt lat="42.61856" lon="1.598">
        <ele>2503</ele>
        <time>2017-02-16T11:17:21.000Z</time>
      </trkpt>
      <trkpt lat="42.61829" lon="1.59822">
        <ele>2500.3999023438</ele>
        <time>2017-02-16T11:18:35.000Z</time>
      </trkpt>
      <trkpt lat="42.61847" lon="1.59732">
        <ele>2493.3999023438</ele>
        <time>2017-02-16T11:19:47.000Z</time>
      </trkpt>
      <trkpt lat="42.61845" lon="1.59744">
        <ele>2493.6000976562</ele>
        <time>2017-02-16T11:21:00.000Z</time>
      </trkpt>
      <trkpt lat="42.6185" lon="1.59572">
        <ele>2460.6000976562</ele>
        <time>2017-02-16T11:22:13.000Z</time>
      </trkpt>
      <trkpt lat="42.61924" lon="1.5897">
        <ele>2377.6000976562</ele>
        <time>2017-02-16T11:23:27.000Z</time>
      </trkpt>
      <trkpt lat="42.61959" lon="1.58721">
        <ele>2314.6000976562</ele>
        <time>2017-02-16T11:24:41.000Z</time>
      </trkpt>
      <trkpt lat="42.61917" lon="1.58688">
        <ele>2299</ele>
        <time>2017-02-16T11:25:53.000Z</time>
      </trkpt>
      <trkpt lat="42.6187" lon="1.5845">
        <ele>2249.1999511719</ele>
        <time>2017-02-16T11:27:07.000Z</time>
      </trkpt>
      <trkpt lat="42.62087" lon="1.5805">
        <ele>2204.8000488281</ele>
        <time>2017-02-16T11:28:21.000Z</time>
      </trkpt>
      <trkpt lat="42.62113" lon="1.58009">
        <ele>2201.6000976562</ele>
        <time>2017-02-16T11:29:35.000Z</time>
      </trkpt>
      <trkpt lat="42.62118" lon="1.58011">
        <ele>2201.6000976562</ele>
        <time>2017-02-16T11:30:53.000Z</time>
      </trkpt>
      <trkpt lat="42.62117" lon="1.58011">
        <ele>2202.3999023438</ele>
        <time>2017-02-16T11:32:06.000Z</time>
      </trkpt>
      <trkpt lat="42.62172" lon="1.5786">
        <ele>2193.1999511719</ele>
        <time>2017-02-16T11:33:21.000Z</time>
      </trkpt>
      <trkpt lat="42.62165" lon="1.5782">
        <ele>2166.6000976562</ele>
        <time>2017-02-16T11:34:36.000Z</time>
      </trkpt>
      <trkpt lat="42.62135" lon="1.57803">
        <ele>2157.1999511719</ele>
        <time>2017-02-16T11:35:49.000Z</time>
      </trkpt>
      <trkpt lat="42.62178" lon="1.57739">
        <ele>2147</ele>
        <time>2017-02-16T11:37:02.000Z</time>
      </trkpt>
      <trkpt lat="42.62173" lon="1.57722">
        <ele>2143.1999511719</ele>
        <time>2017-02-16T11:38:15.000Z</time>
      </trkpt>
      <trkpt lat="42.62198" lon="1.57637">
        <ele>2123.6000976562</ele>
        <time>2017-02-16T11:39:27.000Z</time>
      </trkpt>
      <trkpt lat="42.62251" lon="1.577">
        <ele>2110</ele>
        <time>2017-02-16T11:40:45.000Z</time>
      </trkpt>
      <trkpt lat="42.62287" lon="1.5771">
        <ele>2093.1999511719</ele>
        <time>2017-02-16T11:41:57.000Z</time>
      </trkpt>
      <trkpt lat="42.62382" lon="1.57631">
        <ele>2068.3999023438</ele>
        <time>2017-02-16T11:43:09.000Z</time>
      </trkpt>
      <trkpt lat="42.6235" lon="1.57667">
        <ele>2062.8000488281</ele>
        <time>2017-02-16T11:44:24.000Z</time>
      </trkpt>
      <trkpt lat="42.62363" lon="1.57641">
        <ele>2062.8000488281</ele>
        <time>2017-02-16T11:44:26.000Z</time>
      </trkpt>
      <trkpt lat="42.62376" lon="1.57488">
        <ele>2047</ele>
        <time>2017-02-16T11:45:40.000Z</time>
      </trkpt>
      <trkpt lat="42.62377" lon="1.57214">
        <ele>2015.4000244141</ele>
        <time>2017-02-16T11:46:55.000Z</time>
      </trkpt>
      <trkpt lat="42.6235" lon="1.57031">
        <ele>2005.5999755859</ele>
        <time>2017-02-16T11:48:09.000Z</time>
      </trkpt>
      <trkpt lat="42.62258" lon="1.56685">
        <ele>1977.1999511719</ele>
        <time>2017-02-16T11:49:23.000Z</time>
      </trkpt>
      <trkpt lat="42.62243" lon="1.56649">
        <ele>1967</ele>
        <time>2017-02-16T11:50:36.000Z</time>
      </trkpt>
      <trkpt lat="42.6225" lon="1.56397">
        <ele>1957.8000488281</ele>
        <time>2017-02-16T11:51:49.000Z</time>
      </trkpt>
      <trkpt lat="42.62243" lon="1.56407">
        <ele>1992.4000244141</ele>
        <time>2017-02-16T13:03:16.000Z</time>
      </trkpt>
      <trkpt lat="42.62237" lon="1.56251">
        <ele>1979.5999755859</ele>
        <time>2017-02-16T13:04:16.000Z</time>
      </trkpt>
      <trkpt lat="42.62181" lon="1.55956">
        <ele>1936.8000488281</ele>
        <time>2017-02-16T13:05:16.000Z</time>
      </trkpt>
      <trkpt lat="42.6217" lon="1.5596">
        <ele>1937.4000244141</ele>
        <time>2017-02-16T13:06:30.000Z</time>
      </trkpt>
      <trkpt lat="42.62204" lon="1.55517">
        <ele>1908.8000488281</ele>
        <time>2017-02-16T13:07:45.000Z</time>
      </trkpt>
      <trkpt lat="42.62287" lon="1.55314">
        <ele>1892.5999755859</ele>
        <time>2017-02-16T13:08:56.000Z</time>
      </trkpt>
      <trkpt lat="42.62267" lon="1.55298">
        <ele>1869.4000244141</ele>
        <time>2017-02-16T13:10:09.000Z</time>
      </trkpt>
      <trkpt lat="42.62222" lon="1.55298">
        <ele>1856.1999511719</ele>
        <time>2017-02-16T13:11:22.000Z</time>
      </trkpt>
      <trkpt lat="42.62235" lon="1.55227">
        <ele>1839</ele>
        <time>2017-02-16T13:12:36.000Z</time>
      </trkpt>
      <trkpt lat="42.62406" lon="1.5517">
        <ele>1826.4000244141</ele>
        <time>2017-02-16T13:13:50.000Z</time>
      </trkpt>
      <trkpt lat="42.62646" lon="1.5522">
        <ele>1811.1999511719</ele>
        <time>2017-02-16T13:15:03.000Z</time>
      </trkpt>
      <trkpt lat="42.6263" lon="1.55194">
        <ele>1811.4000244141</ele>
        <time>2017-02-16T13:16:17.000Z</time>
      </trkpt>
      <trkpt lat="42.62615" lon="1.55194">
        <ele>1811.4000244141</ele>
        <time>2017-02-16T13:17:30.000Z</time>
      </trkpt>
      <trkpt lat="42.6262" lon="1.55189">
        <ele>1812.4000244141</ele>
        <time>2017-02-16T13:18:45.000Z</time>
      </trkpt>
      <trkpt lat="42.62599" lon="1.55191">
        <ele>1811.8000488281</ele>
        <time>2017-02-16T13:19:58.000Z</time>
      </trkpt>
      <trkpt lat="42.62611" lon="1.55203">
        <ele>1811.5999755859</ele>
        <time>2017-02-16T13:21:12.000Z</time>
      </trkpt>
      <trkpt lat="42.62632" lon="1.55205">
        <ele>1811.8000488281</ele>
        <time>2017-02-16T13:22:26.000Z</time>
      </trkpt>
      <trkpt lat="42.62626" lon="1.55211">
        <ele>1811.5999755859</ele>
        <time>2017-02-16T13:23:39.000Z</time>
      </trkpt>
      <trkpt lat="42.6262" lon="1.55198">
        <ele>1812.1999511719</ele>
        <time>2017-02-16T13:24:53.000Z</time>
      </trkpt>
      <trkpt lat="42.6263" lon="1.55197">
        <ele>1812.4000244141</ele>
        <time>2017-02-16T13:26:06.000Z</time>
      </trkpt>
      <trkpt lat="42.62624" lon="1.55192">
        <ele>1812.4000244141</ele>
        <time>2017-02-16T13:27:19.000Z</time>
      </trkpt>
      <trkpt lat="42.62636" lon="1.55203">
        <ele>1785.1999511719</ele>
        <time>2017-02-16T14:56:15.000Z</time>
      </trkpt>
      <trkpt lat="42.62657" lon="1.55245">
        <ele>1789.5999755859</ele>
        <time>2017-02-16T14:57:15.000Z</time>
      </trkpt>
      <trkpt lat="42.62675" lon="1.55295">
        <ele>1794.5999755859</ele>
        <time>2017-02-16T14:58:15.000Z</time>
      </trkpt>
      <trkpt lat="42.62693" lon="1.55339">
        <ele>1801.4000244141</ele>
        <time>2017-02-16T14:59:30.000Z</time>
      </trkpt>
      <trkpt lat="42.62718" lon="1.55394">
        <ele>1809.1999511719</ele>
        <time>2017-02-16T15:00:43.000Z</time>
      </trkpt>
      <trkpt lat="42.62706" lon="1.55456">
        <ele>1814.8000488281</ele>
        <time>2017-02-16T15:01:57.000Z</time>
      </trkpt>
      <trkpt lat="42.62737" lon="1.55524">
        <ele>1820.4000244141</ele>
        <time>2017-02-16T15:03:12.000Z</time>
      </trkpt>
      <trkpt lat="42.62775" lon="1.5559">
        <ele>1824.4000244141</ele>
        <time>2017-02-16T15:04:27.000Z</time>
      </trkpt>
      <trkpt lat="42.62791" lon="1.55643">
        <ele>1833</ele>
        <time>2017-02-16T15:05:44.000Z</time>
      </trkpt>
      <trkpt lat="42.62815" lon="1.55691">
        <ele>1839.5999755859</ele>
        <time>2017-02-16T15:06:59.000Z</time>
      </trkpt>
      <trkpt lat="42.6284" lon="1.55732">
        <ele>1846.5999755859</ele>
        <time>2017-02-16T15:08:12.000Z</time>
      </trkpt>
      <trkpt lat="42.62888" lon="1.55737">
        <ele>1852.5999755859</ele>
        <time>2017-02-16T15:09:25.000Z</time>
      </trkpt>
      <trkpt lat="42.62937" lon="1.55766">
        <ele>1855.4000244141</ele>
        <time>2017-02-16T15:10:40.000Z</time>
      </trkpt>
      <trkpt lat="42.62978" lon="1.55819">
        <ele>1858.5999755859</ele>
        <time>2017-02-16T15:11:55.000Z</time>
      </trkpt>
      <trkpt lat="42.63022" lon="1.55897">
        <ele>1865.4000244141</ele>
        <time>2017-02-16T15:13:09.000Z</time>
      </trkpt>
      <trkpt lat="42.63059" lon="1.55924">
        <ele>1870.8000488281</ele>
        <time>2017-02-16T15:14:22.000Z</time>
      </trkpt>
      <trkpt lat="42.63119" lon="1.55932">
        <ele>1873</ele>
        <time>2017-02-16T15:15:34.000Z</time>
      </trkpt>
      <trkpt lat="42.63182" lon="1.55909">
        <ele>1875</ele>
        <time>2017-02-16T15:16:48.000Z</time>
      </trkpt>
      <trkpt lat="42.63233" lon="1.55963">
        <ele>1880.1999511719</ele>
        <time>2017-02-16T15:18:01.000Z</time>
      </trkpt>
      <trkpt lat="42.63302" lon="1.55959">
        <ele>1884</ele>
        <time>2017-02-16T15:19:16.000Z</time>
      </trkpt>
      <trkpt lat="42.63339" lon="1.55957">
        <ele>1889.8000488281</ele>
        <time>2017-02-16T15:20:29.000Z</time>
      </trkpt>
      <trkpt lat="42.63385" lon="1.55966">
        <ele>1894.5999755859</ele>
        <time>2017-02-16T15:21:43.000Z</time>
      </trkpt>
      <trkpt lat="42.63443" lon="1.5602">
        <ele>1896.8000488281</ele>
        <time>2017-02-16T15:22:58.000Z</time>
      </trkpt>
      <trkpt lat="42.63485" lon="1.56011">
        <ele>1901.5999755859</ele>
        <time>2017-02-16T15:24:11.000Z</time>
      </trkpt>
      <trkpt lat="42.6353" lon="1.56024">
        <ele>1907</ele>
        <time>2017-02-16T15:25:25.000Z</time>
      </trkpt>
      <trkpt lat="42.6357" lon="1.56015">
        <ele>1915.4000244141</ele>
        <time>2017-02-16T15:26:38.000Z</time>
      </trkpt>
      <trkpt lat="42.63604" lon="1.56025">
        <ele>1923</ele>
        <time>2017-02-16T15:27:51.000Z</time>
      </trkpt>
      <trkpt lat="42.6365" lon="1.56004">
        <ele>1930.1999511719</ele>
        <time>2017-02-16T15:29:06.000Z</time>
      </trkpt>
      <trkpt lat="42.63663" lon="1.55989">
        <ele>1936.1999511719</ele>
        <time>2017-02-16T15:30:15.000Z</time>
      </trkpt>
      <trkpt lat="42.63685" lon="1.56003">
        <ele>1936</ele>
        <time>2017-02-16T15:31:15.000Z</time>
      </trkpt>
      <trkpt lat="42.63717" lon="1.55997">
        <ele>1940.5999755859</ele>
        <time>2017-02-16T15:32:15.000Z</time>
      </trkpt>
      <trkpt lat="42.63765" lon="1.55973">
        <ele>1949.1999511719</ele>
        <time>2017-02-16T15:33:28.000Z</time>
      </trkpt>
      <trkpt lat="42.63796" lon="1.56001">
        <ele>1953.8000488281</ele>
        <time>2017-02-16T15:34:40.000Z</time>
      </trkpt>
      <trkpt lat="42.63855" lon="1.5603">
        <ele>1958.8000488281</ele>
        <time>2017-02-16T15:35:54.000Z</time>
      </trkpt>
      <trkpt lat="42.63909" lon="1.56027">
        <ele>1962.4000244141</ele>
        <time>2017-02-16T15:37:08.000Z</time>
      </trkpt>
      <trkpt lat="42.6395" lon="1.56071">
        <ele>1965.1999511719</ele>
        <time>2017-02-16T15:38:22.000Z</time>
      </trkpt>
      <trkpt lat="42.63991" lon="1.56103">
        <ele>1974.8000488281</ele>
        <time>2017-02-16T15:39:36.000Z</time>
      </trkpt>
      <trkpt lat="42.64043" lon="1.56117">
        <ele>1984.4000244141</ele>
        <time>2017-02-16T15:40:50.000Z</time>
      </trkpt>
    </trkseg>
  </trk>
</gpx>